sensor_id;sensor_type;location;lat;lon;timestamp;temperature;humidity
6018;DHT22;3037;51.068;13.780;2022-07-06T00:01:43;16.30;99.90
6018;DHT22;3037;51.068;13.780;2022-07-06T00:04:09;16.40;99.90
6018;DHT22;3037;51.068;13.780;2022-07-06T00:06:35;16.30;99.90
6018;DHT22;3037;51.068;13.780;2022-07-06T00:09:01;16.30;99.90
6018;DHT22;3037;51.068;13.780;2022-07-06T00:11:27;16.10;99.90
6018;DHT22;3037;51.068;13.780;2022-07-06T00:13:52;16.00;99.90
6018;DHT22;3037;51.068;13.780;2022-07-06T00:16:18;16.10;99.90
6018;DHT22;3037;51.068;13.780;2022-07-06T00:18:44;16.10;99.90
6018;DHT22;3037;51.068;13.780;2022-07-06T00:21:10;16.10;99.90
6018;DHT22;3037;51.068;13.780;2022-07-06T00:23:35;16.10;99.90
6018;DHT22;3037;51.068;13.780;2022-07-06T00:26:01;16.10;99.90
6018;DHT22;3037;51.068;13.780;2022-07-06T00:28:27;16.00;99.90
6018;DHT22;3037;51.068;13.780;2022-07-06T00:30:53;16.00;99.90
6018;DHT22;3037;51.068;13.780;2022-07-06T00:33:19;15.90;99.90
6018;DHT22;3037;51.068;13.780;2022-07-06T00:35:44;16.00;99.90
6018;DHT22;3037;51.068;13.780;2022-07-06T00:38:10;16.00;99.90
6018;DHT22;3037;51.068;13.780;2022-07-06T00:40:36;15.80;99.90
6018;DHT22;3037;51.068;13.780;2022-07-06T00:43:01;15.70;99.90
6018;DHT22;3037;51.068;13.780;2022-07-06T00:45:27;15.60;99.90
6018;DHT22;3037;51.068;13.780;2022-07-06T00:47:52;15.70;99.90
6018;DHT22;3037;51.068;13.780;2022-07-06T00:50:18;15.60;99.90
6018;DHT22;3037;51.068;13.780;2022-07-06T00:53:00;15.60;99.90
6018;DHT22;3037;51.068;13.780;2022-07-06T00:55:28;15.60;99.90
6018;DHT22;3037;51.068;13.780;2022-07-06T00:57:55;15.60;99.90
6018;DHT22;3037;51.068;13.780;2022-07-06T01:00:26;15.50;99.90
6018;DHT22;3037;51.068;13.780;2022-07-06T01:02:52;15.40;99.90
6018;DHT22;3037;51.068;13.780;2022-07-06T01:05:18;15.30;99.90
6018;DHT22;3037;51.068;13.780;2022-07-06T01:07:51;15.30;99.90
6018;DHT22;3037;51.068;13.780;2022-07-06T01:10:19;15.30;99.90
6018;DHT22;3037;51.068;13.780;2022-07-06T01:12:46;15.40;99.90
6018;DHT22;3037;51.068;13.780;2022-07-06T01:15:22;15.50;99.90
6018;DHT22;3037;51.068;13.780;2022-07-06T01:17:48;15.60;99.90
6018;DHT22;3037;51.068;13.780;2022-07-06T01:20:23;15.70;99.90
6018;DHT22;3037;51.068;13.780;2022-07-06T01:22:51;15.60;99.90
6018;DHT22;3037;51.068;13.780;2022-07-06T01:25:18;15.70;99.90
6018;DHT22;3037;51.068;13.780;2022-07-06T01:27:44;15.70;99.90
6018;DHT22;3037;51.068;13.780;2022-07-06T01:30:12;15.70;99.90
6018;DHT22;3037;51.068;13.780;2022-07-06T01:32:39;15.60;99.90
6018;DHT22;3037;51.068;13.780;2022-07-06T01:35:06;15.60;99.90
6018;DHT22;3037;51.068;13.780;2022-07-06T01:37:33;15.60;99.90
6018;DHT22;3037;51.068;13.780;2022-07-06T01:40:04;15.60;99.90
6018;DHT22;3037;51.068;13.780;2022-07-06T01:42:30;15.60;99.90
6018;DHT22;3037;51.068;13.780;2022-07-06T01:44:56;15.70;99.90
6018;DHT22;3037;51.068;13.780;2022-07-06T01:47:21;15.80;99.90
6018;DHT22;3037;51.068;13.780;2022-07-06T01:49:47;15.80;99.90
6018;DHT22;3037;51.068;13.780;2022-07-06T01:52:13;15.70;99.90
6018;DHT22;3037;51.068;13.780;2022-07-06T01:54:39;15.60;99.90
6018;DHT22;3037;51.068;13.780;2022-07-06T01:57:04;15.70;99.90
6018;DHT22;3037;51.068;13.780;2022-07-06T01:59:30;15.70;99.90
6018;DHT22;3037;51.068;13.780;2022-07-06T02:01:56;15.50;99.90
6018;DHT22;3037;51.068;13.780;2022-07-06T02:04:21;15.40;99.90
6018;DHT22;3037;51.068;13.780;2022-07-06T02:06:47;15.50;99.90
6018;DHT22;3037;51.068;13.780;2022-07-06T02:09:12;15.40;99.90
6018;DHT22;3037;51.068;13.780;2022-07-06T02:11:38;15.40;99.90
6018;DHT22;3037;51.068;13.780;2022-07-06T02:14:04;15.30;99.90
6018;DHT22;3037;51.068;13.780;2022-07-06T02:16:29;15.20;99.90
6018;DHT22;3037;51.068;13.780;2022-07-06T02:18:55;15.30;99.90
6018;DHT22;3037;51.068;13.780;2022-07-06T02:21:20;15.30;99.90
6018;DHT22;3037;51.068;13.780;2022-07-06T02:23:46;15.30;99.90
6018;DHT22;3037;51.068;13.780;2022-07-06T02:26:12;15.20;99.90
6018;DHT22;3037;51.068;13.780;2022-07-06T02:28:38;15.20;99.90
6018;DHT22;3037;51.068;13.780;2022-07-06T02:31:03;15.20;99.90
6018;DHT22;3037;51.068;13.780;2022-07-06T02:33:29;15.20;99.90
6018;DHT22;3037;51.068;13.780;2022-07-06T02:35:54;15.30;99.90
6018;DHT22;3037;51.068;13.780;2022-07-06T02:38:20;15.40;99.90
6018;DHT22;3037;51.068;13.780;2022-07-06T02:40:45;15.40;99.90
6018;DHT22;3037;51.068;13.780;2022-07-06T02:43:11;15.50;99.90
6018;DHT22;3037;51.068;13.780;2022-07-06T02:45:37;15.40;99.90
6018;DHT22;3037;51.068;13.780;2022-07-06T02:48:02;15.40;99.90
6018;DHT22;3037;51.068;13.780;2022-07-06T02:50:28;15.40;99.90
6018;DHT22;3037;51.068;13.780;2022-07-06T02:52:54;15.40;99.90
6018;DHT22;3037;51.068;13.780;2022-07-06T02:55:20;15.40;99.90
6018;DHT22;3037;51.068;13.780;2022-07-06T02:57:46;15.40;99.90
6018;DHT22;3037;51.068;13.780;2022-07-06T03:00:12;15.30;99.90
6018;DHT22;3037;51.068;13.780;2022-07-06T03:02:38;15.20;99.90
6018;DHT22;3037;51.068;13.780;2022-07-06T03:05:03;15.20;99.90
6018;DHT22;3037;51.068;13.780;2022-07-06T03:07:29;15.20;99.90
6018;DHT22;3037;51.068;13.780;2022-07-06T03:09:55;15.20;99.90
6018;DHT22;3037;51.068;13.780;2022-07-06T03:12:20;15.20;99.90
6018;DHT22;3037;51.068;13.780;2022-07-06T03:14:46;15.10;99.90
6018;DHT22;3037;51.068;13.780;2022-07-06T03:17:11;15.20;99.90
6018;DHT22;3037;51.068;13.780;2022-07-06T03:19:37;15.20;99.90
6018;DHT22;3037;51.068;13.780;2022-07-06T03:22:03;15.50;99.90
6018;DHT22;3037;51.068;13.780;2022-07-06T03:24:28;15.40;99.90
6018;DHT22;3037;51.068;13.780;2022-07-06T03:26:54;15.40;99.90
6018;DHT22;3037;51.068;13.780;2022-07-06T03:29:20;15.40;99.90
6018;DHT22;3037;51.068;13.780;2022-07-06T03:31:46;15.50;99.90
6018;DHT22;3037;51.068;13.780;2022-07-06T03:34:11;15.30;99.90
6018;DHT22;3037;51.068;13.780;2022-07-06T03:36:37;15.30;99.90
6018;DHT22;3037;51.068;13.780;2022-07-06T03:39:03;15.40;99.90
6018;DHT22;3037;51.068;13.780;2022-07-06T03:41:28;15.50;99.90
6018;DHT22;3037;51.068;13.780;2022-07-06T03:43:54;15.40;99.90
6018;DHT22;3037;51.068;13.780;2022-07-06T03:46:19;15.50;99.90
6018;DHT22;3037;51.068;13.780;2022-07-06T03:48:45;15.60;99.90
6018;DHT22;3037;51.068;13.780;2022-07-06T03:51:10;15.50;99.90
6018;DHT22;3037;51.068;13.780;2022-07-06T03:53:36;15.50;99.90
6018;DHT22;3037;51.068;13.780;2022-07-06T03:56:02;15.60;99.90
6018;DHT22;3037;51.068;13.780;2022-07-06T03:58:46;15.60;99.90
6018;DHT22;3037;51.068;13.780;2022-07-06T04:01:12;15.60;99.90
6018;DHT22;3037;51.068;13.780;2022-07-06T04:03:37;15.60;99.90
6018;DHT22;3037;51.068;13.780;2022-07-06T04:06:04;15.80;99.90
6018;DHT22;3037;51.068;13.780;2022-07-06T04:08:29;15.80;99.90
6018;DHT22;3037;51.068;13.780;2022-07-06T04:10:55;15.90;99.90
6018;DHT22;3037;51.068;13.780;2022-07-06T04:13:20;16.00;99.90
6018;DHT22;3037;51.068;13.780;2022-07-06T04:15:46;16.20;99.90
6018;DHT22;3037;51.068;13.780;2022-07-06T04:18:11;16.30;99.90
6018;DHT22;3037;51.068;13.780;2022-07-06T04:20:37;16.30;99.90
6018;DHT22;3037;51.068;13.780;2022-07-06T04:23:03;16.40;99.90
6018;DHT22;3037;51.068;13.780;2022-07-06T04:25:28;16.40;99.90
6018;DHT22;3037;51.068;13.780;2022-07-06T04:27:54;16.40;99.90
6018;DHT22;3037;51.068;13.780;2022-07-06T04:30:19;16.60;99.90
6018;DHT22;3037;51.068;13.780;2022-07-06T04:32:45;16.60;99.90
6018;DHT22;3037;51.068;13.780;2022-07-06T04:35:11;16.60;99.90
6018;DHT22;3037;51.068;13.780;2022-07-06T04:37:36;16.70;99.90
6018;DHT22;3037;51.068;13.780;2022-07-06T04:40:03;16.80;99.90
6018;DHT22;3037;51.068;13.780;2022-07-06T04:42:29;16.80;99.90
6018;DHT22;3037;51.068;13.780;2022-07-06T04:44:54;16.90;99.90
6018;DHT22;3037;51.068;13.780;2022-07-06T04:47:20;17.10;99.90
6018;DHT22;3037;51.068;13.780;2022-07-06T04:49:45;17.20;99.90
6018;DHT22;3037;51.068;13.780;2022-07-06T04:52:11;17.00;99.90
6018;DHT22;3037;51.068;13.780;2022-07-06T04:54:36;16.80;99.90
6018;DHT22;3037;51.068;13.780;2022-07-06T04:57:03;16.80;99.90
6018;DHT22;3037;51.068;13.780;2022-07-06T04:59:28;16.90;99.90
6018;DHT22;3037;51.068;13.780;2022-07-06T05:01:54;16.90;99.90
6018;DHT22;3037;51.068;13.780;2022-07-06T05:04:19;17.00;99.90
6018;DHT22;3037;51.068;13.780;2022-07-06T05:06:46;16.90;99.90
6018;DHT22;3037;51.068;13.780;2022-07-06T05:09:13;16.90;99.90
6018;DHT22;3037;51.068;13.780;2022-07-06T05:11:38;17.00;99.90
6018;DHT22;3037;51.068;13.780;2022-07-06T05:14:05;17.10;99.90
6018;DHT22;3037;51.068;13.780;2022-07-06T05:16:31;17.10;99.90
6018;DHT22;3037;51.068;13.780;2022-07-06T05:18:56;17.10;99.90
6018;DHT22;3037;51.068;13.780;2022-07-06T05:21:22;17.30;99.90
6018;DHT22;3037;51.068;13.780;2022-07-06T05:23:47;17.30;99.90
6018;DHT22;3037;51.068;13.780;2022-07-06T05:26:13;17.40;99.90
6018;DHT22;3037;51.068;13.780;2022-07-06T05:28:38;17.50;99.90
6018;DHT22;3037;51.068;13.780;2022-07-06T05:31:04;17.80;99.90
6018;DHT22;3037;51.068;13.780;2022-07-06T05:33:29;18.00;99.90
6018;DHT22;3037;51.068;13.780;2022-07-06T05:35:55;18.30;99.90
6018;DHT22;3037;51.068;13.780;2022-07-06T05:38:20;18.40;99.90
6018;DHT22;3037;51.068;13.780;2022-07-06T05:40:46;18.20;99.90
6018;DHT22;3037;51.068;13.780;2022-07-06T05:43:12;18.40;99.90
6018;DHT22;3037;51.068;13.780;2022-07-06T05:45:37;18.20;99.90
6018;DHT22;3037;51.068;13.780;2022-07-06T05:48:03;18.10;99.90
6018;DHT22;3037;51.068;13.780;2022-07-06T05:50:47;18.30;99.90
6018;DHT22;3037;51.068;13.780;2022-07-06T05:53:13;18.90;99.90
6018;DHT22;3037;51.068;13.780;2022-07-06T05:55:38;19.40;99.90
6018;DHT22;3037;51.068;13.780;2022-07-06T05:58:04;21.50;99.90
6018;DHT22;3037;51.068;13.780;2022-07-06T06:00:30;22.20;99.90
6018;DHT22;3037;51.068;13.780;2022-07-06T06:02:55;23.30;99.90
6018;DHT22;3037;51.068;13.780;2022-07-06T06:05:21;24.10;99.80
6018;DHT22;3037;51.068;13.780;2022-07-06T06:07:47;25.70;91.50
6018;DHT22;3037;51.068;13.780;2022-07-06T06:10:14;26.10;89.50
6018;DHT22;3037;51.068;13.780;2022-07-06T06:12:40;26.80;76.10
6018;DHT22;3037;51.068;13.780;2022-07-06T06:15:08;26.30;71.40
6018;DHT22;3037;51.068;13.780;2022-07-06T06:17:36;26.90;65.20
6018;DHT22;3037;51.068;13.780;2022-07-06T06:20:02;26.90;63.30
6018;DHT22;3037;51.068;13.780;2022-07-06T06:22:28;26.90;64.50
6018;DHT22;3037;51.068;13.780;2022-07-06T06:24:54;27.20;59.80
6018;DHT22;3037;51.068;13.780;2022-07-06T06:27:19;26.80;57.20
6018;DHT22;3037;51.068;13.780;2022-07-06T06:29:45;27.80;52.40
6018;DHT22;3037;51.068;13.780;2022-07-06T06:32:11;28.10;50.20
6018;DHT22;3037;51.068;13.780;2022-07-06T06:34:38;28.50;43.80
6018;DHT22;3037;51.068;13.780;2022-07-06T06:37:03;30.00;30.80
6018;DHT22;3037;51.068;13.780;2022-07-06T06:39:29;28.80;27.20
6018;DHT22;3037;51.068;13.780;2022-07-06T06:41:55;29.00;29.10
6018;DHT22;3037;51.068;13.780;2022-07-06T06:44:20;30.40;24.60
6018;DHT22;3037;51.068;13.780;2022-07-06T06:46:48;31.00;20.70
6018;DHT22;3037;51.068;13.780;2022-07-06T06:49:14;29.10;24.60
6018;DHT22;3037;51.068;13.780;2022-07-06T06:51:40;29.50;23.60
6018;DHT22;3037;51.068;13.780;2022-07-06T06:54:05;29.30;22.80
6018;DHT22;3037;51.068;13.780;2022-07-06T06:56:31;29.90;21.00
6018;DHT22;3037;51.068;13.780;2022-07-06T06:58:56;31.90;15.40
6018;DHT22;3037;51.068;13.780;2022-07-06T07:01:22;31.60;12.40
6018;DHT22;3037;51.068;13.780;2022-07-06T07:03:47;33.10;6.00
6018;DHT22;3037;51.068;13.780;2022-07-06T07:06:13;31.60;6.60
6018;DHT22;3037;51.068;13.780;2022-07-06T07:08:38;31.00;8.90
6018;DHT22;3037;51.068;13.780;2022-07-06T07:11:04;31.70;8.50
6018;DHT22;3037;51.068;13.780;2022-07-06T07:13:30;31.30;6.90
6018;DHT22;3037;51.068;13.780;2022-07-06T07:15:55;29.70;8.50
6018;DHT22;3037;51.068;13.780;2022-07-06T07:18:21;30.60;9.20
6018;DHT22;3037;51.068;13.780;2022-07-06T07:20:46;30.50;6.40
6018;DHT22;3037;51.068;13.780;2022-07-06T07:23:12;30.70;8.40
6018;DHT22;3037;51.068;13.780;2022-07-06T07:25:37;29.90;8.50
6018;DHT22;3037;51.068;13.780;2022-07-06T07:28:05;29.30;8.90
6018;DHT22;3037;51.068;13.780;2022-07-06T07:30:30;28.10;10.90
6018;DHT22;3037;51.068;13.780;2022-07-06T07:32:56;27.30;13.20
6018;DHT22;3037;51.068;13.780;2022-07-06T07:35:22;27.50;12.10
6018;DHT22;3037;51.068;13.780;2022-07-06T07:37:48;26.90;13.70
6018;DHT22;3037;51.068;13.780;2022-07-06T07:40:14;27.00;14.90
6018;DHT22;3037;51.068;13.780;2022-07-06T07:42:39;26.00;16.00
6018;DHT22;3037;51.068;13.780;2022-07-06T07:45:07;25.70;17.10
6018;DHT22;3037;51.068;13.780;2022-07-06T07:47:32;25.70;17.40
6018;DHT22;3037;51.068;13.780;2022-07-06T07:49:58;25.30;19.10
6018;DHT22;3037;51.068;13.780;2022-07-06T07:52:23;25.30;18.90
6018;DHT22;3037;51.068;13.780;2022-07-06T07:54:49;25.60;18.50
6018;DHT22;3037;51.068;13.780;2022-07-06T07:57:15;25.70;19.60
6018;DHT22;3037;51.068;13.780;2022-07-06T07:59:40;25.30;20.00
6018;DHT22;3037;51.068;13.780;2022-07-06T08:02:07;24.70;21.90
6018;DHT22;3037;51.068;13.780;2022-07-06T08:04:33;24.70;21.30
6018;DHT22;3037;51.068;13.780;2022-07-06T08:06:58;24.50;23.00
6018;DHT22;3037;51.068;13.780;2022-07-06T08:09:24;24.50;24.20
6018;DHT22;3037;51.068;13.780;2022-07-06T08:11:49;24.50;20.10
6018;DHT22;3037;51.068;13.780;2022-07-06T08:14:15;24.30;20.60
6018;DHT22;3037;51.068;13.780;2022-07-06T08:16:42;23.90;22.60
6018;DHT22;3037;51.068;13.780;2022-07-06T08:19:08;24.00;21.00
6018;DHT22;3037;51.068;13.780;2022-07-06T08:21:34;24.50;20.00
6018;DHT22;3037;51.068;13.780;2022-07-06T08:24:00;24.10;20.30
6018;DHT22;3037;51.068;13.780;2022-07-06T08:26:27;23.90;18.20
6018;DHT22;3037;51.068;13.780;2022-07-06T08:28:52;23.80;15.60
6018;DHT22;3037;51.068;13.780;2022-07-06T08:31:18;23.80;15.30
6018;DHT22;3037;51.068;13.780;2022-07-06T08:33:44;23.90;14.10
6018;DHT22;3037;51.068;13.780;2022-07-06T08:36:09;23.40;15.30
6018;DHT22;3037;51.068;13.780;2022-07-06T08:38:35;24.90;16.20
6018;DHT22;3037;51.068;13.780;2022-07-06T08:41:01;26.10;12.40
6018;DHT22;3037;51.068;13.780;2022-07-06T08:43:27;26.00;11.00
6018;DHT22;3037;51.068;13.780;2022-07-06T08:45:53;26.60;8.10
6018;DHT22;3037;51.068;13.780;2022-07-06T08:48:22;25.80;9.50
6018;DHT22;3037;51.068;13.780;2022-07-06T08:50:48;25.80;8.40
6018;DHT22;3037;51.068;13.780;2022-07-06T08:53:18;26.00;9.50
6018;DHT22;3037;51.068;13.780;2022-07-06T08:55:44;26.50;8.00
6018;DHT22;3037;51.068;13.780;2022-07-06T08:58:09;25.40;8.20
6018;DHT22;3037;51.068;13.780;2022-07-06T09:00:36;25.20;7.50
6018;DHT22;3037;51.068;13.780;2022-07-06T09:03:01;25.40;7.60
6018;DHT22;3037;51.068;13.780;2022-07-06T09:05:28;25.10;10.60
6018;DHT22;3037;51.068;13.780;2022-07-06T09:07:54;25.60;8.60
6018;DHT22;3037;51.068;13.780;2022-07-06T09:10:21;27.40;4.70
6018;DHT22;3037;51.068;13.780;2022-07-06T09:12:47;27.40;4.70
6018;DHT22;3037;51.068;13.780;2022-07-06T09:15:13;26.70;4.30
6018;DHT22;3037;51.068;13.780;2022-07-06T09:17:40;26.90;2.60
6018;DHT22;3037;51.068;13.780;2022-07-06T09:20:13;26.70;4.30
6018;DHT22;3037;51.068;13.780;2022-07-06T09:22:39;26.40;1.00
6018;DHT22;3037;51.068;13.780;2022-07-06T09:25:15;26.10;1.30
6018;DHT22;3037;51.068;13.780;2022-07-06T09:27:47;26.00;1.20
6018;DHT22;3037;51.068;13.780;2022-07-06T09:30:13;25.40;3.80
6018;DHT22;3037;51.068;13.780;2022-07-06T09:32:44;25.40;3.90
6018;DHT22;3037;51.068;13.780;2022-07-06T09:35:28;25.30;4.40
6018;DHT22;3037;51.068;13.780;2022-07-06T09:40:34;26.10;3.40
6018;DHT22;3037;51.068;13.780;2022-07-06T09:45:35;26.90;2.00
6018;DHT22;3037;51.068;13.780;2022-07-06T09:48:10;25.90;1.60
6018;DHT22;3037;51.068;13.780;2022-07-06T09:50:40;25.80;3.10
6018;DHT22;3037;51.068;13.780;2022-07-06T09:53:08;26.70;4.20
6018;DHT22;3037;51.068;13.780;2022-07-06T09:55:33;28.70;1.00
6018;DHT22;3037;51.068;13.780;2022-07-06T09:57:59;30.30;1.00
6018;DHT22;3037;51.068;13.780;2022-07-06T10:00:24;30.90;1.00
6018;DHT22;3037;51.068;13.780;2022-07-06T10:02:51;30.70;1.00
6018;DHT22;3037;51.068;13.780;2022-07-06T10:05:17;31.70;1.00
6018;DHT22;3037;51.068;13.780;2022-07-06T10:07:45;31.90;1.00
6018;DHT22;3037;51.068;13.780;2022-07-06T10:10:15;31.00;1.00
6018;DHT22;3037;51.068;13.780;2022-07-06T10:12:43;31.00;1.00
6018;DHT22;3037;51.068;13.780;2022-07-06T10:15:10;30.90;1.00
6018;DHT22;3037;51.068;13.780;2022-07-06T10:17:38;29.80;1.00
6018;DHT22;3037;51.068;13.780;2022-07-06T10:20:05;31.20;1.00
6018;DHT22;3037;51.068;13.780;2022-07-06T10:22:32;31.10;1.00
6018;DHT22;3037;51.068;13.780;2022-07-06T10:24:58;29.80;1.00
6018;DHT22;3037;51.068;13.780;2022-07-06T10:27:24;28.60;1.00
6018;DHT22;3037;51.068;13.780;2022-07-06T10:29:50;28.70;1.00
6018;DHT22;3037;51.068;13.780;2022-07-06T10:32:19;27.80;1.00
6018;DHT22;3037;51.068;13.780;2022-07-06T10:34:45;29.10;1.00
6018;DHT22;3037;51.068;13.780;2022-07-06T10:37:25;30.10;1.00
6018;DHT22;3037;51.068;13.780;2022-07-06T10:39:51;29.40;1.00
6018;DHT22;3037;51.068;13.780;2022-07-06T10:42:43;28.50;1.00
6018;DHT22;3037;51.068;13.780;2022-07-06T10:45:11;27.20;1.00
6018;DHT22;3037;51.068;13.780;2022-07-06T10:47:37;27.70;1.00
6018;DHT22;3037;51.068;13.780;2022-07-06T10:50:03;28.70;1.00
6018;DHT22;3037;51.068;13.780;2022-07-06T10:55:32;29.00;1.00
6018;DHT22;3037;51.068;13.780;2022-07-06T10:57:58;28.70;1.00
6018;DHT22;3037;51.068;13.780;2022-07-06T11:00:26;28.70;1.00
6018;DHT22;3037;51.068;13.780;2022-07-06T11:02:51;28.40;1.00
6018;DHT22;3037;51.068;13.780;2022-07-06T11:05:39;27.90;1.00
6018;DHT22;3037;51.068;13.780;2022-07-06T11:08:09;27.90;1.00
6018;DHT22;3037;51.068;13.780;2022-07-06T11:10:48;29.00;1.00
6018;DHT22;3037;51.068;13.780;2022-07-06T11:13:27;29.60;1.00
6018;DHT22;3037;51.068;13.780;2022-07-06T11:16:00;29.00;1.00
6018;DHT22;3037;51.068;13.780;2022-07-06T11:18:27;28.80;1.00
6018;DHT22;3037;51.068;13.780;2022-07-06T11:21:19;27.50;1.00
6018;DHT22;3037;51.068;13.780;2022-07-06T11:23:47;27.30;1.00
6018;DHT22;3037;51.068;13.780;2022-07-06T11:26:14;27.20;1.00
6018;DHT22;3037;51.068;13.780;2022-07-06T11:28:40;28.00;1.00
6018;DHT22;3037;51.068;13.780;2022-07-06T11:31:06;28.30;1.00
6018;DHT22;3037;51.068;13.780;2022-07-06T11:33:31;28.30;1.00
6018;DHT22;3037;51.068;13.780;2022-07-06T11:36:21;28.70;1.00
6018;DHT22;3037;51.068;13.780;2022-07-06T11:38:48;28.80;1.00
6018;DHT22;3037;51.068;13.780;2022-07-06T11:41:15;29.40;1.00
6018;DHT22;3037;51.068;13.780;2022-07-06T11:43:42;28.50;1.00
6018;DHT22;3037;51.068;13.780;2022-07-06T11:46:24;27.90;1.00
6018;DHT22;3037;51.068;13.780;2022-07-06T11:48:53;27.30;1.00
6018;DHT22;3037;51.068;13.780;2022-07-06T11:51:19;26.80;1.00
6018;DHT22;3037;51.068;13.780;2022-07-06T11:53:50;26.20;1.00
6018;DHT22;3037;51.068;13.780;2022-07-06T11:56:16;26.30;1.00
6018;DHT22;3037;51.068;13.780;2022-07-06T11:58:45;25.90;1.00
6018;DHT22;3037;51.068;13.780;2022-07-06T12:01:12;25.60;1.00
6018;DHT22;3037;51.068;13.780;2022-07-06T12:03:38;25.40;1.00
6018;DHT22;3037;51.068;13.780;2022-07-06T12:06:24;25.40;1.00
6018;DHT22;3037;51.068;13.780;2022-07-06T12:08:53;26.00;1.00
6018;DHT22;3037;51.068;13.780;2022-07-06T12:11:26;27.00;1.00
6018;DHT22;3037;51.068;13.780;2022-07-06T12:13:54;27.50;1.00
6018;DHT22;3037;51.068;13.780;2022-07-06T12:16:20;26.70;1.00
6018;DHT22;3037;51.068;13.780;2022-07-06T12:18:49;26.50;1.00
6018;DHT22;3037;51.068;13.780;2022-07-06T12:21:18;27.00;1.00
6018;DHT22;3037;51.068;13.780;2022-07-06T12:23:46;26.80;1.00
6018;DHT22;3037;51.068;13.780;2022-07-06T12:26:17;27.10;1.00
6018;DHT22;3037;51.068;13.780;2022-07-06T12:28:43;27.10;1.00
6018;DHT22;3037;51.068;13.780;2022-07-06T12:31:10;27.20;1.00
6018;DHT22;3037;51.068;13.780;2022-07-06T12:33:36;26.90;1.00
6018;DHT22;3037;51.068;13.780;2022-07-06T12:36:14;26.70;1.00
6018;DHT22;3037;51.068;13.780;2022-07-06T12:38:45;26.60;1.00
6018;DHT22;3037;51.068;13.780;2022-07-06T12:41:23;26.30;1.00
6018;DHT22;3037;51.068;13.780;2022-07-06T12:44:06;25.80;1.00
6018;DHT22;3037;51.068;13.780;2022-07-06T12:46:35;26.50;1.00
6018;DHT22;3037;51.068;13.780;2022-07-06T12:49:24;27.40;1.00
6018;DHT22;3037;51.068;13.780;2022-07-06T12:54:34;26.40;1.00
6018;DHT22;3037;51.068;13.780;2022-07-06T12:57:01;26.90;1.00
6018;DHT22;3037;51.068;13.780;2022-07-06T12:59:27;27.30;1.00
6018;DHT22;3037;51.068;13.780;2022-07-06T13:01:53;27.40;1.00
6018;DHT22;3037;51.068;13.780;2022-07-06T13:04:29;26.60;1.00
6018;DHT22;3037;51.068;13.780;2022-07-06T13:06:57;25.90;1.00
6018;DHT22;3037;51.068;13.780;2022-07-06T13:09:23;25.80;1.00
6018;DHT22;3037;51.068;13.780;2022-07-06T13:11:49;25.80;1.00
6018;DHT22;3037;51.068;13.780;2022-07-06T13:14:15;26.10;1.00
6018;DHT22;3037;51.068;13.780;2022-07-06T13:16:42;26.40;1.00
6018;DHT22;3037;51.068;13.780;2022-07-06T13:19:08;26.50;1.00
6018;DHT22;3037;51.068;13.780;2022-07-06T13:21:34;26.80;1.00
6018;DHT22;3037;51.068;13.780;2022-07-06T13:23:59;27.00;1.00
6018;DHT22;3037;51.068;13.780;2022-07-06T13:26:25;27.70;1.00
6018;DHT22;3037;51.068;13.780;2022-07-06T13:28:50;27.30;1.00
6018;DHT22;3037;51.068;13.780;2022-07-06T13:31:16;27.50;1.00
6018;DHT22;3037;51.068;13.780;2022-07-06T13:33:41;27.70;1.00
6018;DHT22;3037;51.068;13.780;2022-07-06T13:36:07;27.70;1.00
6018;DHT22;3037;51.068;13.780;2022-07-06T13:38:33;27.80;1.00
6018;DHT22;3037;51.068;13.780;2022-07-06T13:40:58;27.70;1.00
6018;DHT22;3037;51.068;13.780;2022-07-06T13:43:24;27.20;1.00
6018;DHT22;3037;51.068;13.780;2022-07-06T13:45:49;27.60;1.00
6018;DHT22;3037;51.068;13.780;2022-07-06T13:48:15;27.20;1.00
6018;DHT22;3037;51.068;13.780;2022-07-06T13:50:40;26.80;1.00
6018;DHT22;3037;51.068;13.780;2022-07-06T13:53:06;27.00;1.00
6018;DHT22;3037;51.068;13.780;2022-07-06T13:55:32;27.40;1.00
6018;DHT22;3037;51.068;13.780;2022-07-06T13:57:59;27.00;1.00
6018;DHT22;3037;51.068;13.780;2022-07-06T14:00:24;26.80;1.00
6018;DHT22;3037;51.068;13.780;2022-07-06T14:02:50;26.50;1.00
6018;DHT22;3037;51.068;13.780;2022-07-06T14:05:16;27.00;1.00
6018;DHT22;3037;51.068;13.780;2022-07-06T14:07:41;27.10;1.00
6018;DHT22;3037;51.068;13.780;2022-07-06T14:10:07;27.30;1.00
6018;DHT22;3037;51.068;13.780;2022-07-06T14:12:33;26.90;1.00
6018;DHT22;3037;51.068;13.780;2022-07-06T14:14:58;27.10;1.00
6018;DHT22;3037;51.068;13.780;2022-07-06T14:17:25;26.90;1.00
6018;DHT22;3037;51.068;13.780;2022-07-06T14:19:51;26.80;1.00
6018;DHT22;3037;51.068;13.780;2022-07-06T14:22:16;26.90;1.00
6018;DHT22;3037;51.068;13.780;2022-07-06T14:24:42;26.80;1.00
6018;DHT22;3037;51.068;13.780;2022-07-06T14:27:07;26.40;1.00
6018;DHT22;3037;51.068;13.780;2022-07-06T14:29:33;25.90;1.00
6018;DHT22;3037;51.068;13.780;2022-07-06T14:31:58;25.70;1.00
6018;DHT22;3037;51.068;13.780;2022-07-06T14:34:24;25.80;1.00
6018;DHT22;3037;51.068;13.780;2022-07-06T14:36:50;26.10;1.00
6018;DHT22;3037;51.068;13.780;2022-07-06T14:39:16;26.20;1.00
6018;DHT22;3037;51.068;13.780;2022-07-06T14:41:42;26.30;1.00
6018;DHT22;3037;51.068;13.780;2022-07-06T14:44:07;25.40;1.00
6018;DHT22;3037;51.068;13.780;2022-07-06T14:46:33;25.50;1.00
6018;DHT22;3037;51.068;13.780;2022-07-06T14:48:59;25.80;1.00
6018;DHT22;3037;51.068;13.780;2022-07-06T14:51:25;25.80;1.00
6018;DHT22;3037;51.068;13.780;2022-07-06T14:53:51;26.20;1.00
6018;DHT22;3037;51.068;13.780;2022-07-06T14:56:16;25.80;1.00
6018;DHT22;3037;51.068;13.780;2022-07-06T14:58:41;25.90;1.00
6018;DHT22;3037;51.068;13.780;2022-07-06T15:01:07;25.70;1.00
6018;DHT22;3037;51.068;13.780;2022-07-06T15:03:32;25.70;1.00
6018;DHT22;3037;51.068;13.780;2022-07-06T15:05:58;25.50;1.00
6018;DHT22;3037;51.068;13.780;2022-07-06T15:08:24;26.30;1.00
6018;DHT22;3037;51.068;13.780;2022-07-06T15:10:49;26.00;1.00
6018;DHT22;3037;51.068;13.780;2022-07-06T15:13:15;26.30;1.00
6018;DHT22;3037;51.068;13.780;2022-07-06T15:15:41;25.90;1.00
6018;DHT22;3037;51.068;13.780;2022-07-06T15:18:06;25.80;1.00
6018;DHT22;3037;51.068;13.780;2022-07-06T15:20:32;25.70;1.00
6018;DHT22;3037;51.068;13.780;2022-07-06T15:22:58;25.80;1.00
6018;DHT22;3037;51.068;13.780;2022-07-06T15:25:24;25.90;1.00
6018;DHT22;3037;51.068;13.780;2022-07-06T15:27:51;25.70;1.00
6018;DHT22;3037;51.068;13.780;2022-07-06T15:30:16;25.40;1.00
6018;DHT22;3037;51.068;13.780;2022-07-06T15:32:42;25.30;1.00
6018;DHT22;3037;51.068;13.780;2022-07-06T15:35:07;25.40;1.00
6018;DHT22;3037;51.068;13.780;2022-07-06T15:37:34;25.50;1.00
6018;DHT22;3037;51.068;13.780;2022-07-06T15:40:00;25.80;1.00
6018;DHT22;3037;51.068;13.780;2022-07-06T15:42:26;26.20;1.00
6018;DHT22;3037;51.068;13.780;2022-07-06T15:44:52;26.30;1.00
6018;DHT22;3037;51.068;13.780;2022-07-06T15:47:18;26.30;1.00
6018;DHT22;3037;51.068;13.780;2022-07-06T15:49:44;26.00;1.00
6018;DHT22;3037;51.068;13.780;2022-07-06T15:52:10;26.20;1.00
6018;DHT22;3037;51.068;13.780;2022-07-06T15:54:36;25.90;1.00
6018;DHT22;3037;51.068;13.780;2022-07-06T15:57:02;26.20;1.00
6018;DHT22;3037;51.068;13.780;2022-07-06T15:59:27;25.40;1.00
6018;DHT22;3037;51.068;13.780;2022-07-06T16:01:53;25.00;1.00